Mount Carmel, North Dakota
Current Conditions -  °F | °C
As of 8:15 AM on Thursday 18 Dec 2014 (Local Time) from KD55 Reporting Station
Few Clouds Few Clouds  
Wind Chill: -5°   Ceiling: Unl
Heat Index:   Visibility: 10mi
Dew Point:   Wind: 7mph
Humidity: 85%   Direction: 150°SSE
Pressure: 30.13"   Gusts: NA
Location:  48.8344°N, 98.3538°W
Report Text: KD55 181415Z AUTO 15006KT 10SM FEW085 M14/M16 A3013 RMK AO2
Loading
Personal Weather Stations






























Interactive Weather Map New forecast layout! Learn more

10-Day Weather Forecast

Advertisements
Track Severe Weather on mobile